Weather observations for the past three days for
Piarco International Airport
Imperial (Metric)
Date Time (ast) Wind (mph) Vis. (mi.) Weather Sky Cond. Temperature (ºF) Relative Humidity Wind Chill (°F) Heat Index (°F) Pressure Precipitation (in)
Air Dwpt 6 hour altimeter (in) sea level (mb) 1 hr 3 hr 6 hr
Max. Min.
06 19:00 E 9 0.00 A Few Clouds FEW018 82.4 71.6 70% 87 0 0.0
06 18:00 E 12 0.00 Showers in Vicinity SCT020 84.2 71.6 66% 90 0 0.0
06 17:00 E 14 0.00 A Few Clouds FEW022 86 69.8 59% 91 0 0.0
06 16:00 SE 14 0.00 Partly Cloudy SCT026 86 69.8 59% 91 0 0.0
06 15:00 SE 14 0.00 Partly Cloudy SCT026 87.8 69.8 55% 93 0 0.0
06 14:00 E 14 0.00 Mostly Cloudy BKN026 87.8 69.8 55% 93 0 0.0
06 13:00 SE 14 0.00 Mostly Cloudy BKN026 87.8 69.8 55% 93 0 0.0
06 12:00 SE 17 0.00 Mostly Cloudy BKN024 87.8 71.6 59% 94 0 0.0
06 11:00 SE 17 0.00 Partly Cloudy SCT022 86 69.8 59% 91 0 0.0
06 10:00 E 17 0.00 Mostly Cloudy BKN020 84.2 71.6 66% 90 0 0.0
06 09:00 E 17 0.00 Mostly Cloudy BKN020 84.2 71.6 66% 90 0 0.0
06 08:00 E 9 0.00 A Few Clouds FEW018 82.4 73.4 74% 88 0 0.0
06 07:00 Calm 0.00 Showers in Vicinity SCT016 78.8 73.4 84% 82 0 0.0
06 06:00 SE 8 0.00 Light Showers Rain Showers in Vicinity BKN016 78.8 73.4 84% 82 0 0.0
06 05:00 E 3 0.00 Partly Cloudy SCT015 78.8 71.6 79% 82 0 0.0
06 04:00 E 6 0.00 A Few Clouds FEW015 78.8 71.6 79% 82 0 0.0
06 03:00 E 8 0.00 A Few Clouds FEW015 78.8 71.6 79% 82 0 0.0
06 02:00 SE 6 0.00 Partly Cloudy SCT015 78.8 73.4 84% 82 0 0.0
06 01:00 SE 6 0.00 Partly Cloudy SCT015 78.8 73.4 84% 82 0 0.0
06 00:00 E 6 0.00 A Few Clouds FEW015 78.8 73.4 84% 82 0 0.0
05 23:00 E 6 0.00 A Few Clouds FEW015 78.8 73.4 84% 82 0 0.0
05 22:00 SE 8 0.00 Partly Cloudy SCT015 80.6 73.4 79% 85 0 0.0
05 21:00 E 14 0.00 A Few Clouds FEW015 80.6 73.4 79% 85 0 0.0
05 20:00 E 8 0.00 A Few Clouds FEW015 80.6 73.4 79% 85 0 0.0
05 19:00 E 9 0.00 A Few Clouds FEW018 82.4 73.4 74% 88 0 0.0
05 18:00 E 13 0.00 Showers in Vicinity SCT018 82.4 71.6 70% 87 0 0.0
05 17:00 SE 17 0.00 Showers in Vicinity SCT020 84.2 73.4 70% 91 0 0.0
05 16:00 E 13 0.00 Showers in Vicinity SCT020 86 71.6 62% 92 0 0.0
05 15:00 SE 17 0.00 Showers in Vicinity SCT020 86 73.4 66% 93 0 0.0
05 14:01 SE 13 0.00 Showers in Vicinity SCT020 82.4 73.4 74% 88 0 0.0
05 14:00 SE 13 0.00 Showers in Vicinity SCT020 82.4 73.4 74% 88 0 0.0
05 13:00 SE 10 0.00 Light Showers Rain FEW018 BKN048 80.6 73.4 79% 85 0 0.0
05 12:00 E 15 0.00 Showers in Vicinity FEW018 SCT050 87.8 71.6 59% 94 0 0.0
05 11:00 E 15 0.00 Showers in Vicinity FEW018 SCT028 87.8 71.6 59% 94 0 0.0
05 10:00 E 15 0.00 Light Showers Rain FEW018 SCT025 84.2 71.6 66% 90 0 0.0
05 09:00 E 14 0.00 Partly Cloudy SCT025 86 71.6 62% 92 0 0.0
05 08:00 E 12 0.00 A Few Clouds FEW018 82.4 71.6 70% 87 0 0.0
05 07:00 E 6 0.00 A Few Clouds FEW016 78.8 71.6 79% 82 0 0.0
05 06:00 E 6 0.00 A Few Clouds FEW016 77 71.6 83% 78 0 0.0
05 05:00 E 6 0.00 A Few Clouds FEW016 77 71.6 83% 78 0 0.0
05 04:00 E 6 0.00 A Few Clouds FEW016 77 71.6 83% 78 0 0.0
05 03:00 E 3 0.00 A Few Clouds FEW016 77 71.6 83% 78 0 0.0
05 02:00 Calm 0.00 A Few Clouds FEW016 77 71.6 83% 78 0 0.0
05 01:00 E 3 0.00 A Few Clouds FEW016 77 71.6 83% 78 0 0.0
05 00:00 Calm 0.00 A Few Clouds FEW016 77 71.6 83% 78 0 0.0
04 23:00 E 3 0.00 A Few Clouds FEW016 77 71.6 83% 78 0 0.0
04 22:00 E 3 0.00 A Few Clouds FEW018 78.8 71.6 79% 82 0 0.0
04 21:00 E 3 0.00 A Few Clouds FEW018 78.8 71.6 79% 82 0 0.0
04 20:00 Calm 0.00 A Few Clouds FEW018 78.8 71.6 79% 82 0 0.0
04 19:00 E 6 0.00 A Few Clouds FEW020 80.6 71.6 74% 85 0 0.0
04 18:00 E 9 0.00 A Few Clouds FEW022 84.2 69.8 62% 88 0 0.0
04 17:00 SE 7 0.00 A Few Clouds FEW024 84.2 69.8 62% 88 0 0.0
04 16:00 SE 12 0.00 Partly Cloudy SCT024 87.8 69.8 55% 93 0 0.0
04 15:00 E 14 0.00 Mostly Cloudy BKN026 87.8 69.8 55% 93 0 0.0
04 14:00 E 17 0.00 Mostly Cloudy BKN026 87.8 69.8 55% 93 0 0.0
04 13:00 E 14 0.00 Mostly Cloudy BKN026 87.8 69.8 55% 93 0 0.0
04 12:00 SE 14 0.00 Mostly Cloudy BKN026 87.8 69.8 55% 93 0 0.0
04 11:00 SE 14 0.00 Mostly Cloudy BKN026 86 68 55% 89 0 0.0
04 10:00 SE 12 0.00 Mostly Cloudy BKN026 86 69.8 59% 91 0 0.0
04 09:00 SE 15 0.00 A Few Clouds FEW022 84.2 69.8 62% 88 0 0.0
04 08:00 E 13 0.00 A Few Clouds FEW018 82.4 71.6 70% 87 0 0.0
04 07:00 E 5 0.00 A Few Clouds FEW016 78.8 71.6 79% 82 0 0.0
04 06:00 E 3 0.00 A Few Clouds FEW016 75.2 71.6 89% 75 0 0.0
04 05:00 Calm 0.00 A Few Clouds FEW016 77 71.6 83% 78 0 0.0
04 04:00 Calm 0.00 A Few Clouds FEW016 77 71.6 83% 78 0 0.0
04 03:00 Calm 0.00 A Few Clouds FEW016 77 71.6 83% 78 0 0.0
04 02:00 Calm 0.00 A Few Clouds FEW016 77 71.6 83% 78 0 0.0
04 01:00 Calm 0.00 A Few Clouds FEW016 77 71.6 83% 78 0 0.0
04 00:00 Calm 0.00 A Few Clouds FEW016 78.8 71.6 79% 82 0 0.0
03 23:00 SE 3 0.00 A Few Clouds FEW016 78.8 71.6 79% 82 0 0.0
03 22:00 E 6 0.00 A Few Clouds FEW016 78.8 71.6 79% 82 0 0.0
03 21:00 E 7 0.00 A Few Clouds FEW016 78.8 71.6 79% 82 0 0.0
Date Time (ast) Wind (mph) Vis. (mi.) Weather Sky Cond. Air Dwpt Max. Min. Relative Humidity Wind Chill (°F) Heat Index (°F) altimeter (in) sea level (mb) 1 hr 3 hr 6 hr
6 hour
Temperature (ºF) Pressure Precipitation (in)